sensor_id;sensor_type;location;lat;lon;timestamp;P1;durP1;ratioP1;P2;durP2;ratioP2
1390;SDS011;690;51.454;7.194;2023-02-14T00:01:36;13.73;;;10.00;;
1390;SDS011;690;51.454;7.194;2023-02-14T00:04:03;15.47;;;11.80;;
1390;SDS011;690;51.454;7.194;2023-02-14T00:06:30;12.60;;;10.00;;
1390;SDS011;690;51.454;7.194;2023-02-14T00:08:59;13.90;;;10.47;;
1390;SDS011;690;51.454;7.194;2023-02-14T00:11:26;14.93;;;9.83;;
1390;SDS011;690;51.454;7.194;2023-02-14T00:13:55;13.37;;;9.43;;
1390;SDS011;690;51.454;7.194;2023-02-14T00:16:39;12.73;;;9.10;;
1390;SDS011;690;51.454;7.194;2023-02-14T00:19:07;12.30;;;8.27;;
1390;SDS011;690;51.454;7.194;2023-02-14T00:21:35;10.90;;;8.80;;
1390;SDS011;690;51.454;7.194;2023-02-14T00:24:03;15.60;;;9.03;;
1390;SDS011;690;51.454;7.194;2023-02-14T00:26:30;10.40;;;8.57;;
1390;SDS011;690;51.454;7.194;2023-02-14T00:28:58;9.37;;;7.37;;
1390;SDS011;690;51.454;7.194;2023-02-14T00:31:25;11.27;;;7.73;;
1390;SDS011;690;51.454;7.194;2023-02-14T00:33:53;9.70;;;8.10;;
1390;SDS011;690;51.454;7.194;2023-02-14T00:36:20;8.87;;;7.47;;
1390;SDS011;690;51.454;7.194;2023-02-14T00:38:46;9.90;;;6.97;;
1390;SDS011;690;51.454;7.194;2023-02-14T00:41:13;10.00;;;7.00;;
1390;SDS011;690;51.454;7.194;2023-02-14T00:43:43;10.33;;;7.70;;
1390;SDS011;690;51.454;7.194;2023-02-14T00:46:12;11.17;;;7.53;;
1390;SDS011;690;51.454;7.194;2023-02-14T00:48:40;14.90;;;8.17;;
1390;SDS011;690;51.454;7.194;2023-02-14T00:51:07;7.10;;;5.90;;
1390;SDS011;690;51.454;7.194;2023-02-14T00:53:35;8.20;;;6.50;;
1390;SDS011;690;51.454;7.194;2023-02-14T00:56:02;8.30;;;6.80;;
1390;SDS011;690;51.454;7.194;2023-02-14T00:58:29;9.00;;;6.93;;
1390;SDS011;690;51.454;7.194;2023-02-14T01:00:57;7.97;;;6.90;;
1390;SDS011;690;51.454;7.194;2023-02-14T01:03:26;7.93;;;6.60;;
1390;SDS011;690;51.454;7.194;2023-02-14T01:05:53;10.87;;;7.43;;
1390;SDS011;690;51.454;7.194;2023-02-14T01:08:19;7.97;;;6.43;;
1390;SDS011;690;51.454;7.194;2023-02-14T01:10:46;8.67;;;6.20;;
1390;SDS011;690;51.454;7.194;2023-02-14T01:13:13;7.63;;;6.73;;
1390;SDS011;690;51.454;7.194;2023-02-14T01:15:41;9.20;;;6.70;;
1390;SDS011;690;51.454;7.194;2023-02-14T01:18:10;8.70;;;6.20;;
1390;SDS011;690;51.454;7.194;2023-02-14T01:20:38;9.53;;;6.90;;
1390;SDS011;690;51.454;7.194;2023-02-14T01:23:06;8.80;;;6.67;;
1390;SDS011;690;51.454;7.194;2023-02-14T01:25:33;8.33;;;7.00;;
1390;SDS011;690;51.454;7.194;2023-02-14T01:28:02;9.20;;;7.07;;
1390;SDS011;690;51.454;7.194;2023-02-14T01:30:29;9.10;;;6.93;;
1390;SDS011;690;51.454;7.194;2023-02-14T01:32:56;8.90;;;6.93;;
1390;SDS011;690;51.454;7.194;2023-02-14T01:35:23;12.10;;;7.57;;
1390;SDS011;690;51.454;7.194;2023-02-14T01:37:51;11.03;;;8.10;;
1390;SDS011;690;51.454;7.194;2023-02-14T01:40:19;9.33;;;8.20;;
1390;SDS011;690;51.454;7.194;2023-02-14T01:42:46;10.50;;;8.37;;
1390;SDS011;690;51.454;7.194;2023-02-14T01:45:14;11.90;;;8.70;;
1390;SDS011;690;51.454;7.194;2023-02-14T01:47:43;10.70;;;7.63;;
1390;SDS011;690;51.454;7.194;2023-02-14T01:50:15;9.60;;;7.67;;
1390;SDS011;690;51.454;7.194;2023-02-14T01:52:48;9.73;;;8.20;;
1390;SDS011;690;51.454;7.194;2023-02-14T01:55:20;12.33;;;8.20;;
1390;SDS011;690;51.454;7.194;2023-02-14T01:57:52;11.60;;;7.80;;
1390;SDS011;690;51.454;7.194;2023-02-14T02:00:24;9.60;;;7.77;;
1390;SDS011;690;51.454;7.194;2023-02-14T02:03:09;9.00;;;7.87;;
1390;SDS011;690;51.454;7.194;2023-02-14T02:05:39;10.87;;;8.40;;
1390;SDS011;690;51.454;7.194;2023-02-14T02:08:12;9.73;;;8.13;;
1390;SDS011;690;51.454;7.194;2023-02-14T02:10:39;10.23;;;8.10;;
1390;SDS011;690;51.454;7.194;2023-02-14T02:13:07;10.73;;;8.43;;
1390;SDS011;690;51.454;7.194;2023-02-14T02:15:41;11.83;;;8.30;;
1390;SDS011;690;51.454;7.194;2023-02-14T02:18:16;12.70;;;8.47;;
1390;SDS011;690;51.454;7.194;2023-02-14T02:21:05;10.40;;;8.60;;
1390;SDS011;690;51.454;7.194;2023-02-14T02:24:21;11.63;;;8.63;;
1390;SDS011;690;51.454;7.194;2023-02-14T02:39:14;11.47;;;9.40;;
1390;SDS011;690;51.454;7.194;2023-02-14T02:41:52;12.33;;;9.30;;
1390;SDS011;690;51.454;7.194;2023-02-14T02:44:32;11.23;;;8.50;;
1390;SDS011;690;51.454;7.194;2023-02-14T02:47:09;13.60;;;10.07;;
1390;SDS011;690;51.454;7.194;2023-02-14T02:49:44;12.40;;;8.50;;
1390;SDS011;690;51.454;7.194;2023-02-14T02:52:35;9.60;;;8.30;;
1390;SDS011;690;51.454;7.194;2023-02-14T02:55:25;14.27;;;9.17;;
1390;SDS011;690;51.454;7.194;2023-02-14T02:58:18;11.30;;;8.57;;
1390;SDS011;690;51.454;7.194;2023-02-14T03:00:46;12.27;;;10.07;;
1390;SDS011;690;51.454;7.194;2023-02-14T03:03:15;12.30;;;8.90;;
1390;SDS011;690;51.454;7.194;2023-02-14T03:06:01;13.07;;;9.50;;
1390;SDS011;690;51.454;7.194;2023-02-14T03:08:28;15.63;;;10.30;;
1390;SDS011;690;51.454;7.194;2023-02-14T03:10:56;12.33;;;9.50;;
1390;SDS011;690;51.454;7.194;2023-02-14T03:16:23;14.90;;;10.93;;
1390;SDS011;690;51.454;7.194;2023-02-14T03:19:03;13.10;;;8.87;;
1390;SDS011;690;51.454;7.194;2023-02-14T03:22:25;16.37;;;10.60;;
1390;SDS011;690;51.454;7.194;2023-02-14T03:25:01;14.75;;;10.60;;
1390;SDS011;690;51.454;7.194;2023-02-14T03:27:37;15.43;;;11.67;;
1390;SDS011;690;51.454;7.194;2023-02-14T03:30:11;13.37;;;10.87;;
1390;SDS011;690;51.454;7.194;2023-02-14T03:32:44;14.03;;;10.07;;
1390;SDS011;690;51.454;7.194;2023-02-14T03:35:16;15.67;;;10.67;;
1390;SDS011;690;51.454;7.194;2023-02-14T03:37:48;12.30;;;10.10;;
1390;SDS011;690;51.454;7.194;2023-02-14T03:40:21;13.63;;;10.18;;
1390;SDS011;690;51.454;7.194;2023-02-14T03:42:54;15.48;;;10.68;;
1390;SDS011;690;51.454;7.194;2023-02-14T03:45:27;13.10;;;9.50;;
1390;SDS011;690;51.454;7.194;2023-02-14T03:47:59;14.68;;;10.10;;
1390;SDS011;690;51.454;7.194;2023-02-14T03:50:30;13.82;;;11.05;;
1390;SDS011;690;51.454;7.194;2023-02-14T03:52:59;16.70;;;11.10;;
1390;SDS011;690;51.454;7.194;2023-02-14T03:55:29;16.30;;;10.27;;
1390;SDS011;690;51.454;7.194;2023-02-14T03:58:02;13.85;;;10.00;;
1390;SDS011;690;51.454;7.194;2023-02-14T04:00:36;16.92;;;12.23;;
1390;SDS011;690;51.454;7.194;2023-02-14T04:03:08;16.45;;;10.70;;
1390;SDS011;690;51.454;7.194;2023-02-14T04:05:37;13.85;;;9.93;;
1390;SDS011;690;51.454;7.194;2023-02-14T04:08:07;17.67;;;11.30;;
1390;SDS011;690;51.454;7.194;2023-02-14T04:10:35;17.90;;;11.75;;
1390;SDS011;690;51.454;7.194;2023-02-14T04:13:05;16.33;;;12.80;;
1390;SDS011;690;51.454;7.194;2023-02-14T04:15:32;14.85;;;11.27;;
1390;SDS011;690;51.454;7.194;2023-02-14T04:17:59;18.90;;;11.00;;
1390;SDS011;690;51.454;7.194;2023-02-14T04:20:43;19.50;;;12.52;;
1390;SDS011;690;51.454;7.194;2023-02-14T04:23:10;17.70;;;12.88;;
1390;SDS011;690;51.454;7.194;2023-02-14T04:25:37;16.27;;;11.80;;
1390;SDS011;690;51.454;7.194;2023-02-14T04:28:08;16.70;;;11.02;;
1390;SDS011;690;51.454;7.194;2023-02-14T04:30:35;13.35;;;10.13;;
1390;SDS011;690;51.454;7.194;2023-02-14T04:33:02;11.80;;;9.82;;
1390;SDS011;690;51.454;7.194;2023-02-14T04:35:29;13.93;;;10.05;;
1390;SDS011;690;51.454;7.194;2023-02-14T04:37:56;15.43;;;10.35;;
1390;SDS011;690;51.454;7.194;2023-02-14T04:40:22;15.55;;;10.93;;
1390;SDS011;690;51.454;7.194;2023-02-14T04:42:49;16.17;;;12.07;;
1390;SDS011;690;51.454;7.194;2023-02-14T04:45:17;16.85;;;11.52;;
1390;SDS011;690;51.454;7.194;2023-02-14T04:47:45;16.35;;;11.38;;
1390;SDS011;690;51.454;7.194;2023-02-14T04:50:12;16.98;;;12.35;;
1390;SDS011;690;51.454;7.194;2023-02-14T04:52:39;17.00;;;11.93;;
1390;SDS011;690;51.454;7.194;2023-02-14T04:55:07;16.85;;;12.00;;
1390;SDS011;690;51.454;7.194;2023-02-14T04:57:34;19.23;;;11.52;;
1390;SDS011;690;51.454;7.194;2023-02-14T05:00:01;18.08;;;11.73;;
1390;SDS011;690;51.454;7.194;2023-02-14T05:02:29;16.70;;;11.45;;
1390;SDS011;690;51.454;7.194;2023-02-14T05:04:56;14.73;;;11.65;;
1390;SDS011;690;51.454;7.194;2023-02-14T05:07:23;19.42;;;11.80;;
1390;SDS011;690;51.454;7.194;2023-02-14T05:09:49;16.95;;;11.57;;
1390;SDS011;690;51.454;7.194;2023-02-14T05:12:16;14.73;;;11.10;;
1390;SDS011;690;51.454;7.194;2023-02-14T05:14:43;18.83;;;12.13;;
1390;SDS011;690;51.454;7.194;2023-02-14T05:17:10;17.10;;;13.25;;
1390;SDS011;690;51.454;7.194;2023-02-14T05:19:39;23.88;;;12.73;;
1390;SDS011;690;51.454;7.194;2023-02-14T05:22:05;15.77;;;11.70;;
1390;SDS011;690;51.454;7.194;2023-02-14T05:24:32;19.00;;;12.60;;
1390;SDS011;690;51.454;7.194;2023-02-14T05:26:59;18.70;;;12.48;;
1390;SDS011;690;51.454;7.194;2023-02-14T05:29:26;17.55;;;13.05;;
1390;SDS011;690;51.454;7.194;2023-02-14T05:31:53;20.52;;;12.45;;
1390;SDS011;690;51.454;7.194;2023-02-14T05:34:20;20.60;;;14.18;;
1390;SDS011;690;51.454;7.194;2023-02-14T05:36:48;19.90;;;12.77;;
1390;SDS011;690;51.454;7.194;2023-02-14T05:39:15;15.35;;;11.75;;
1390;SDS011;690;51.454;7.194;2023-02-14T05:41:42;20.50;;;12.75;;
1390;SDS011;690;51.454;7.194;2023-02-14T05:44:09;15.45;;;11.15;;
1390;SDS011;690;51.454;7.194;2023-02-14T05:46:36;17.02;;;13.07;;
1390;SDS011;690;51.454;7.194;2023-02-14T05:49:03;16.05;;;11.90;;
1390;SDS011;690;51.454;7.194;2023-02-14T05:51:29;20.45;;;13.32;;
1390;SDS011;690;51.454;7.194;2023-02-14T05:53:58;17.73;;;12.07;;
1390;SDS011;690;51.454;7.194;2023-02-14T05:56:25;17.77;;;12.73;;
1390;SDS011;690;51.454;7.194;2023-02-14T05:58:52;18.13;;;12.43;;
1390;SDS011;690;51.454;7.194;2023-02-14T06:01:19;17.13;;;12.27;;
1390;SDS011;690;51.454;7.194;2023-02-14T06:03:46;18.13;;;12.05;;
1390;SDS011;690;51.454;7.194;2023-02-14T06:06:12;22.27;;;15.18;;
1390;SDS011;690;51.454;7.194;2023-02-14T06:08:39;18.88;;;13.93;;
1390;SDS011;690;51.454;7.194;2023-02-14T06:11:07;26.42;;;16.55;;
1390;SDS011;690;51.454;7.194;2023-02-14T06:13:34;41.42;;;17.38;;
1390;SDS011;690;51.454;7.194;2023-02-14T06:16:02;23.80;;;16.35;;
1390;SDS011;690;51.454;7.194;2023-02-14T06:18:29;27.40;;;14.68;;
1390;SDS011;690;51.454;7.194;2023-02-14T06:20:56;24.48;;;15.32;;
1390;SDS011;690;51.454;7.194;2023-02-14T06:23:22;24.73;;;14.93;;
1390;SDS011;690;51.454;7.194;2023-02-14T06:25:50;22.77;;;15.75;;
1390;SDS011;690;51.454;7.194;2023-02-14T06:28:18;24.88;;;15.05;;
1390;SDS011;690;51.454;7.194;2023-02-14T06:30:45;22.60;;;14.45;;
1390;SDS011;690;51.454;7.194;2023-02-14T06:33:12;21.35;;;14.60;;
1390;SDS011;690;51.454;7.194;2023-02-14T06:35:39;24.83;;;15.27;;
1390;SDS011;690;51.454;7.194;2023-02-14T06:38:06;23.98;;;14.73;;
1390;SDS011;690;51.454;7.194;2023-02-14T06:40:33;30.50;;;17.67;;
1390;SDS011;690;51.454;7.194;2023-02-14T06:42:59;22.92;;;16.33;;
1390;SDS011;690;51.454;7.194;2023-02-14T06:45:28;29.23;;;17.48;;
1390;SDS011;690;51.454;7.194;2023-02-14T06:47:55;24.13;;;17.20;;
1390;SDS011;690;51.454;7.194;2023-02-14T06:50:21;31.33;;;16.63;;
1390;SDS011;690;51.454;7.194;2023-02-14T06:52:48;30.33;;;17.70;;
1390;SDS011;690;51.454;7.194;2023-02-14T06:55:15;28.85;;;17.85;;
1390;SDS011;690;51.454;7.194;2023-02-14T06:57:42;31.02;;;17.50;;
1390;SDS011;690;51.454;7.194;2023-02-14T07:00:10;28.33;;;17.17;;
1390;SDS011;690;51.454;7.194;2023-02-14T07:02:40;31.60;;;20.95;;
1390;SDS011;690;51.454;7.194;2023-02-14T07:05:07;43.20;;;32.00;;
1390;SDS011;690;51.454;7.194;2023-02-14T07:07:34;29.08;;;20.05;;
1390;SDS011;690;51.454;7.194;2023-02-14T07:10:01;31.13;;;19.77;;
1390;SDS011;690;51.454;7.194;2023-02-14T07:12:28;37.03;;;21.52;;
1390;SDS011;690;51.454;7.194;2023-02-14T07:14:54;34.67;;;20.27;;
1390;SDS011;690;51.454;7.194;2023-02-14T07:17:21;28.30;;;18.63;;
1390;SDS011;690;51.454;7.194;2023-02-14T07:19:49;27.85;;;17.55;;
1390;SDS011;690;51.454;7.194;2023-02-14T07:22:16;31.65;;;19.65;;
1390;SDS011;690;51.454;7.194;2023-02-14T07:24:43;31.48;;;19.38;;
1390;SDS011;690;51.454;7.194;2023-02-14T07:27:10;33.90;;;20.25;;
1390;SDS011;690;51.454;7.194;2023-02-14T07:29:37;39.97;;;22.40;;
1390;SDS011;690;51.454;7.194;2023-02-14T07:32:04;40.78;;;21.35;;
1390;SDS011;690;51.454;7.194;2023-02-14T07:34:31;36.60;;;21.50;;
1390;SDS011;690;51.454;7.194;2023-02-14T07:36:59;33.00;;;20.98;;
1390;SDS011;690;51.454;7.194;2023-02-14T07:39:27;38.93;;;21.27;;
1390;SDS011;690;51.454;7.194;2023-02-14T07:41:53;41.10;;;26.67;;
1390;SDS011;690;51.454;7.194;2023-02-14T07:44:20;36.40;;;25.65;;
1390;SDS011;690;51.454;7.194;2023-02-14T07:46:47;37.90;;;26.27;;
1390;SDS011;690;51.454;7.194;2023-02-14T07:49:14;37.25;;;21.45;;
1390;SDS011;690;51.454;7.194;2023-02-14T07:51:41;37.60;;;21.90;;
1390;SDS011;690;51.454;7.194;2023-02-14T07:54:09;37.92;;;21.83;;
1390;SDS011;690;51.454;7.194;2023-02-14T07:56:36;38.05;;;20.48;;
1390;SDS011;690;51.454;7.194;2023-02-14T07:59:03;34.08;;;20.30;;
1390;SDS011;690;51.454;7.194;2023-02-14T08:01:30;32.78;;;19.33;;
1390;SDS011;690;51.454;7.194;2023-02-14T08:03:57;37.97;;;21.23;;
1390;SDS011;690;51.454;7.194;2023-02-14T08:06:23;31.70;;;20.38;;
1390;SDS011;690;51.454;7.194;2023-02-14T08:08:51;33.80;;;20.17;;
1390;SDS011;690;51.454;7.194;2023-02-14T08:11:20;31.57;;;19.73;;
1390;SDS011;690;51.454;7.194;2023-02-14T08:14:09;32.40;;;20.30;;
1390;SDS011;690;51.454;7.194;2023-02-14T08:16:36;29.47;;;17.87;;
1390;SDS011;690;51.454;7.194;2023-02-14T08:19:03;32.17;;;20.50;;
1390;SDS011;690;51.454;7.194;2023-02-14T08:21:30;28.30;;;19.27;;
1390;SDS011;690;51.454;7.194;2023-02-14T08:23:57;33.20;;;20.97;;
1390;SDS011;690;51.454;7.194;2023-02-14T08:26:26;28.60;;;19.27;;
1390;SDS011;690;51.454;7.194;2023-02-14T08:28:53;29.67;;;19.63;;
1390;SDS011;690;51.454;7.194;2023-02-14T08:31:23;33.90;;;20.97;;
1390;SDS011;690;51.454;7.194;2023-02-14T08:33:50;32.67;;;22.00;;
1390;SDS011;690;51.454;7.194;2023-02-14T08:36:17;33.03;;;21.67;;
1390;SDS011;690;51.454;7.194;2023-02-14T08:38:44;37.20;;;22.50;;
1390;SDS011;690;51.454;7.194;2023-02-14T08:41:12;32.83;;;20.70;;
1390;SDS011;690;51.454;7.194;2023-02-14T08:43:40;33.63;;;20.73;;
1390;SDS011;690;51.454;7.194;2023-02-14T08:46:08;35.77;;;20.07;;
1390;SDS011;690;51.454;7.194;2023-02-14T08:48:36;32.00;;;21.30;;
1390;SDS011;690;51.454;7.194;2023-02-14T08:51:04;30.10;;;19.10;;
1390;SDS011;690;51.454;7.194;2023-02-14T08:53:31;26.53;;;17.40;;
1390;SDS011;690;51.454;7.194;2023-02-14T08:56:00;34.37;;;19.53;;
1390;SDS011;690;51.454;7.194;2023-02-14T08:58:28;32.60;;;20.70;;
1390;SDS011;690;51.454;7.194;2023-02-14T09:00:56;28.20;;;17.63;;
1390;SDS011;690;51.454;7.194;2023-02-14T09:03:23;29.03;;;19.10;;
1390;SDS011;690;51.454;7.194;2023-02-14T09:05:50;28.80;;;18.30;;
1390;SDS011;690;51.454;7.194;2023-02-14T09:08:17;27.63;;;18.50;;
1390;SDS011;690;51.454;7.194;2023-02-14T09:10:44;29.60;;;17.63;;
1390;SDS011;690;51.454;7.194;2023-02-14T09:13:10;27.63;;;17.90;;
1390;SDS011;690;51.454;7.194;2023-02-14T09:15:39;30.13;;;18.50;;
1390;SDS011;690;51.454;7.194;2023-02-14T09:18:07;25.17;;;16.97;;
1390;SDS011;690;51.454;7.194;2023-02-14T09:20:34;26.70;;;18.87;;
1390;SDS011;690;51.454;7.194;2023-02-14T09:23:01;25.53;;;16.60;;
1390;SDS011;690;51.454;7.194;2023-02-14T09:25:27;26.60;;;17.30;;
1390;SDS011;690;51.454;7.194;2023-02-14T09:27:55;24.63;;;17.07;;
1390;SDS011;690;51.454;7.194;2023-02-14T09:30:22;25.87;;;16.40;;
1390;SDS011;690;51.454;7.194;2023-02-14T09:32:50;23.40;;;14.37;;
1390;SDS011;690;51.454;7.194;2023-02-14T09:35:18;20.73;;;13.07;;
1390;SDS011;690;51.454;7.194;2023-02-14T09:37:45;18.53;;;12.13;;
1390;SDS011;690;51.454;7.194;2023-02-14T09:40:12;14.67;;;10.83;;
1390;SDS011;690;51.454;7.194;2023-02-14T09:42:54;17.17;;;11.07;;
1390;SDS011;690;51.454;7.194;2023-02-14T09:45:26;17.20;;;11.23;;
1390;SDS011;690;51.454;7.194;2023-02-14T09:47:55;16.33;;;12.50;;
1390;SDS011;690;51.454;7.194;2023-02-14T09:50:28;15.30;;;10.70;;
1390;SDS011;690;51.454;7.194;2023-02-14T09:52:59;14.00;;;10.20;;
1390;SDS011;690;51.454;7.194;2023-02-14T09:55:32;14.10;;;10.13;;
1390;SDS011;690;51.454;7.194;2023-02-14T09:58:05;14.57;;;10.17;;
1390;SDS011;690;51.454;7.194;2023-02-14T10:00:37;17.60;;;10.50;;
1390;SDS011;690;51.454;7.194;2023-02-14T10:03:15;15.73;;;10.73;;
1390;SDS011;690;51.454;7.194;2023-02-14T10:06:12;16.20;;;12.33;;
1390;SDS011;690;51.454;7.194;2023-02-14T10:08:51;16.20;;;11.63;;
1390;SDS011;690;51.454;7.194;2023-02-14T10:11:23;17.53;;;11.23;;
1390;SDS011;690;51.454;7.194;2023-02-14T10:13:50;14.70;;;10.60;;
1390;SDS011;690;51.454;7.194;2023-02-14T10:16:22;15.00;;;10.70;;
1390;SDS011;690;51.454;7.194;2023-02-14T10:18:53;14.70;;;11.73;;
1390;SDS011;690;51.454;7.194;2023-02-14T10:21:27;13.80;;;10.97;;
1390;SDS011;690;51.454;7.194;2023-02-14T10:23:59;16.27;;;11.33;;
1390;SDS011;690;51.454;7.194;2023-02-14T10:26:35;18.27;;;10.87;;
1390;SDS011;690;51.454;7.194;2023-02-14T10:29:04;17.30;;;10.47;;
1390;SDS011;690;51.454;7.194;2023-02-14T10:31:35;15.47;;;10.70;;
1390;SDS011;690;51.454;7.194;2023-02-14T10:34:07;18.23;;;11.10;;
1390;SDS011;690;51.454;7.194;2023-02-14T10:36:46;17.57;;;11.40;;
1390;SDS011;690;51.454;7.194;2023-02-14T10:39:30;18.17;;;11.50;;
1390;SDS011;690;51.454;7.194;2023-02-14T10:42:13;19.97;;;14.03;;
1390;SDS011;690;51.454;7.194;2023-02-14T10:44:53;16.23;;;12.40;;
1390;SDS011;690;51.454;7.194;2023-02-14T10:47:31;22.33;;;13.70;;
1390;SDS011;690;51.454;7.194;2023-02-14T10:50:06;19.20;;;13.63;;
1390;SDS011;690;51.454;7.194;2023-02-14T10:52:43;18.80;;;13.53;;
1390;SDS011;690;51.454;7.194;2023-02-14T10:55:19;24.37;;;15.20;;
1390;SDS011;690;51.454;7.194;2023-02-14T10:57:52;23.03;;;14.30;;
1390;SDS011;690;51.454;7.194;2023-02-14T11:00:20;18.90;;;13.43;;
1390;SDS011;690;51.454;7.194;2023-02-14T11:02:50;21.07;;;15.27;;
1390;SDS011;690;51.454;7.194;2023-02-14T11:05:25;20.03;;;13.93;;
1390;SDS011;690;51.454;7.194;2023-02-14T11:07:57;20.90;;;13.80;;
1390;SDS011;690;51.454;7.194;2023-02-14T11:10:26;18.80;;;14.03;;
1390;SDS011;690;51.454;7.194;2023-02-14T11:12:57;17.50;;;13.60;;
1390;SDS011;690;51.454;7.194;2023-02-14T11:15:25;21.10;;;14.50;;
1390;SDS011;690;51.454;7.194;2023-02-14T11:20:57;19.60;;;12.73;;
1390;SDS011;690;51.454;7.194;2023-02-14T11:23:30;19.90;;;14.00;;
1390;SDS011;690;51.454;7.194;2023-02-14T11:25:59;19.93;;;13.50;;
1390;SDS011;690;51.454;7.194;2023-02-14T11:28:26;18.73;;;13.20;;
1390;SDS011;690;51.454;7.194;2023-02-14T11:30:54;17.43;;;13.30;;
1390;SDS011;690;51.454;7.194;2023-02-14T11:33:22;18.30;;;14.07;;
1390;SDS011;690;51.454;7.194;2023-02-14T11:35:58;21.43;;;13.00;;
1390;SDS011;690;51.454;7.194;2023-02-14T11:38:29;15.70;;;11.03;;
1390;SDS011;690;51.454;7.194;2023-02-14T11:40:58;19.07;;;13.20;;
1390;SDS011;690;51.454;7.194;2023-02-14T11:43:29;20.00;;;13.27;;
1390;SDS011;690;51.454;7.194;2023-02-14T11:46:05;17.03;;;12.80;;
1390;SDS011;690;51.454;7.194;2023-02-14T11:48:54;21.43;;;12.87;;
1390;SDS011;690;51.454;7.194;2023-02-14T11:51:27;17.10;;;12.10;;
1390;SDS011;690;51.454;7.194;2023-02-14T11:53:58;16.70;;;12.50;;
1390;SDS011;690;51.454;7.194;2023-02-14T11:56:48;20.40;;;13.47;;
1390;SDS011;690;51.454;7.194;2023-02-14T11:59:23;15.37;;;11.43;;
1390;SDS011;690;51.454;7.194;2023-02-14T12:01:55;13.90;;;11.30;;
1390;SDS011;690;51.454;7.194;2023-02-14T12:04:26;16.57;;;12.00;;
1390;SDS011;690;51.454;7.194;2023-02-14T12:07:10;18.03;;;12.40;;
1390;SDS011;690;51.454;7.194;2023-02-14T12:09:41;16.70;;;11.90;;
1390;SDS011;690;51.454;7.194;2023-02-14T12:12:14;11.63;;;9.57;;
1390;SDS011;690;51.454;7.194;2023-02-14T12:14:43;10.30;;;8.77;;
1390;SDS011;690;51.454;7.194;2023-02-14T12:17:12;10.93;;;8.30;;
1390;SDS011;690;51.454;7.194;2023-02-14T12:19:49;14.10;;;9.07;;
1390;SDS011;690;51.454;7.194;2023-02-14T12:22:21;13.03;;;9.90;;
1390;SDS011;690;51.454;7.194;2023-02-14T12:24:53;12.30;;;10.33;;
1390;SDS011;690;51.454;7.194;2023-02-14T12:27:25;12.70;;;9.00;;
1390;SDS011;690;51.454;7.194;2023-02-14T12:29:57;12.80;;;8.63;;
1390;SDS011;690;51.454;7.194;2023-02-14T12:32:28;12.90;;;8.10;;
1390;SDS011;690;51.454;7.194;2023-02-14T12:34:59;11.63;;;8.70;;
1390;SDS011;690;51.454;7.194;2023-02-14T12:37:40;10.03;;;8.40;;
1390;SDS011;690;51.454;7.194;2023-02-14T12:40:26;12.80;;;9.27;;
1390;SDS011;690;51.454;7.194;2023-02-14T12:46:06;12.90;;;9.23;;
1390;SDS011;690;51.454;7.194;2023-02-14T12:48:45;13.90;;;11.20;;
1390;SDS011;690;51.454;7.194;2023-02-14T12:51:28;11.23;;;9.37;;
1390;SDS011;690;51.454;7.194;2023-02-14T12:54:09;11.93;;;10.30;;
1390;SDS011;690;51.454;7.194;2023-02-14T12:56:55;17.33;;;11.13;;
1390;SDS011;690;51.454;7.194;2023-02-14T12:59:29;14.30;;;11.53;;
1390;SDS011;690;51.454;7.194;2023-02-14T13:05:15;14.10;;;10.00;;
1390;SDS011;690;51.454;7.194;2023-02-14T13:07:54;15.70;;;10.17;;
1390;SDS011;690;51.454;7.194;2023-02-14T13:10:34;14.00;;;9.67;;
1390;SDS011;690;51.454;7.194;2023-02-14T13:13:14;11.03;;;9.07;;
1390;SDS011;690;51.454;7.194;2023-02-14T13:15:51;11.13;;;8.50;;
1390;SDS011;690;51.454;7.194;2023-02-14T13:18:28;12.73;;;9.40;;
1390;SDS011;690;51.454;7.194;2023-02-14T13:21:06;11.30;;;8.83;;
1390;SDS011;690;51.454;7.194;2023-02-14T13:23:36;9.37;;;8.37;;
1390;SDS011;690;51.454;7.194;2023-02-14T13:26:07;14.60;;;10.60;;
1390;SDS011;690;51.454;7.194;2023-02-14T13:28:39;12.63;;;9.30;;
1390;SDS011;690;51.454;7.194;2023-02-14T13:31:12;17.13;;;11.40;;
1390;SDS011;690;51.454;7.194;2023-02-14T13:33:40;15.23;;;10.93;;
1390;SDS011;690;51.454;7.194;2023-02-14T13:36:11;14.77;;;10.30;;
1390;SDS011;690;51.454;7.194;2023-02-14T13:38:40;15.53;;;10.60;;
1390;SDS011;690;51.454;7.194;2023-02-14T13:41:09;12.60;;;9.73;;
1390;SDS011;690;51.454;7.194;2023-02-14T13:46:45;13.47;;;9.17;;
1390;SDS011;690;51.454;7.194;2023-02-14T13:49:22;13.50;;;10.30;;
1390;SDS011;690;51.454;7.194;2023-02-14T13:51:54;13.17;;;9.23;;
1390;SDS011;690;51.454;7.194;2023-02-14T13:54:30;16.00;;;9.87;;
1390;SDS011;690;51.454;7.194;2023-02-14T13:57:03;15.17;;;11.03;;
1390;SDS011;690;51.454;7.194;2023-02-14T14:00:21;13.80;;;9.70;;
1390;SDS011;690;51.454;7.194;2023-02-14T14:03:00;14.90;;;10.00;;
1390;SDS011;690;51.454;7.194;2023-02-14T14:08:37;14.60;;;10.37;;
1390;SDS011;690;51.454;7.194;2023-02-14T14:11:12;13.57;;;10.00;;
1390;SDS011;690;51.454;7.194;2023-02-14T14:14:35;15.27;;;10.50;;
1390;SDS011;690;51.454;7.194;2023-02-14T14:17:16;16.63;;;10.77;;
1390;SDS011;690;51.454;7.194;2023-02-14T14:19:49;14.30;;;10.13;;
1390;SDS011;690;51.454;7.194;2023-02-14T14:22:17;16.03;;;9.40;;
1390;SDS011;690;51.454;7.194;2023-02-14T14:24:55;13.33;;;9.30;;
1390;SDS011;690;51.454;7.194;2023-02-14T14:27:24;17.67;;;10.30;;
1390;SDS011;690;51.454;7.194;2023-02-14T14:29:55;11.00;;;9.20;;
1390;SDS011;690;51.454;7.194;2023-02-14T14:32:28;12.90;;;9.03;;
1390;SDS011;690;51.454;7.194;2023-02-14T14:34:57;12.83;;;9.70;;
1390;SDS011;690;51.454;7.194;2023-02-14T14:37:26;14.63;;;9.90;;
1390;SDS011;690;51.454;7.194;2023-02-14T14:39:54;13.93;;;10.63;;
1390;SDS011;690;51.454;7.194;2023-02-14T14:42:23;13.77;;;9.60;;
1390;SDS011;690;51.454;7.194;2023-02-14T14:44:52;12.77;;;8.93;;
1390;SDS011;690;51.454;7.194;2023-02-14T14:47:22;16.33;;;10.30;;
1390;SDS011;690;51.454;7.194;2023-02-14T14:49:53;15.00;;;9.80;;
1390;SDS011;690;51.454;7.194;2023-02-14T14:52:28;23.50;;;15.30;;
1390;SDS011;690;51.454;7.194;2023-02-14T14:54:58;16.07;;;11.13;;
1390;SDS011;690;51.454;7.194;2023-02-14T14:57:25;17.53;;;12.20;;
1390;SDS011;690;51.454;7.194;2023-02-14T15:00:03;17.83;;;11.17;;
1390;SDS011;690;51.454;7.194;2023-02-14T15:02:33;18.30;;;12.67;;
1390;SDS011;690;51.454;7.194;2023-02-14T15:05:10;15.40;;;11.00;;
1390;SDS011;690;51.454;7.194;2023-02-14T15:07:42;12.70;;;10.73;;
1390;SDS011;690;51.454;7.194;2023-02-14T15:10:19;15.80;;;10.37;;
1390;SDS011;690;51.454;7.194;2023-02-14T15:12:48;15.30;;;11.43;;
1390;SDS011;690;51.454;7.194;2023-02-14T15:15:34;18.33;;;11.20;;
1390;SDS011;690;51.454;7.194;2023-02-14T15:18:03;17.70;;;12.00;;
1390;SDS011;690;51.454;7.194;2023-02-14T15:20:32;17.40;;;12.10;;
1390;SDS011;690;51.454;7.194;2023-02-14T15:23:01;13.13;;;10.07;;
1390;SDS011;690;51.454;7.194;2023-02-14T15:25:30;12.83;;;11.13;;
1390;SDS011;690;51.454;7.194;2023-02-14T15:28:00;15.87;;;11.20;;
1390;SDS011;690;51.454;7.194;2023-02-14T15:30:28;15.17;;;11.57;;
1390;SDS011;690;51.454;7.194;2023-02-14T15:32:58;16.53;;;11.30;;
1390;SDS011;690;51.454;7.194;2023-02-14T15:35:28;14.00;;;10.97;;
1390;SDS011;690;51.454;7.194;2023-02-14T15:37:59;16.70;;;10.90;;
1390;SDS011;690;51.454;7.194;2023-02-14T15:40:29;22.00;;;11.13;;
1390;SDS011;690;51.454;7.194;2023-02-14T15:43:00;15.90;;;10.80;;
1390;SDS011;690;51.454;7.194;2023-02-14T15:45:41;19.17;;;11.57;;
1390;SDS011;690;51.454;7.194;2023-02-14T15:48:13;18.17;;;11.90;;
1390;SDS011;690;51.454;7.194;2023-02-14T15:50:44;17.67;;;11.90;;
1390;SDS011;690;51.454;7.194;2023-02-14T15:53:28;25.00;;;12.63;;
1390;SDS011;690;51.454;7.194;2023-02-14T15:56:02;15.10;;;11.57;;
1390;SDS011;690;51.454;7.194;2023-02-14T15:58:32;14.13;;;12.33;;
1390;SDS011;690;51.454;7.194;2023-02-14T16:01:00;21.63;;;13.47;;